createdAt,value
2022-08-09T00:00:00.706Z,102798.03
2022-08-09T00:02:31.632Z,102796.69
2022-08-09T00:05:03.208Z,102785.41
2022-08-09T00:07:45.381Z,102787.31
2022-08-09T00:10:18.154Z,102784.97
2022-08-09T00:12:51.677Z,102796.47
2022-08-09T00:15:19.903Z,102795.59
2022-08-09T00:18:09.398Z,102786.06
2022-08-09T00:20:42.113Z,102784.47
2022-08-09T00:23:55.013Z,102790.00
2022-08-09T00:26:05.243Z,102792.38
2022-08-09T00:28:32.287Z,102797.69
2022-08-09T00:31:09.177Z,102781.06
2022-08-09T00:33:51.799Z,102777.41
2022-08-09T00:36:19.592Z,102789.00
2022-08-09T00:38:46.701Z,102791.59
2022-08-09T00:44:10.788Z,102793.34
2022-08-09T00:44:13.488Z,102800.06
2022-08-09T00:46:57.804Z,102791.28
2022-08-09T00:49:36.698Z,102788.44
2022-08-09T00:52:17.364Z,102793.13
2022-08-09T00:54:45.286Z,102798.03
2022-08-09T00:57:12.605Z,102803.09
2022-08-09T00:59:47.147Z,102801.38
2022-08-09T01:02:22.109Z,102800.66
2022-08-09T01:04:57.377Z,102804.63
2022-08-09T01:07:37.662Z,102802.19
2022-08-09T01:10:51.864Z,102804.97
2022-08-09T01:13:58.911Z,102791.75
2022-08-09T01:16:36.970Z,102798.91
2022-08-09T01:19:39.727Z,102799.59
2022-08-09T01:22:28.354Z,102796.97
2022-08-09T01:25:41.875Z,102805.88
2022-08-09T01:28:10.670Z,102804.56
2022-08-09T01:30:51.325Z,102804.03
2022-08-09T01:33:26.298Z,102811.34
2022-08-09T01:36:07.167Z,102809.34
2022-08-09T01:38:44.263Z,102818.63
2022-08-09T01:41:18.572Z,102803.09
2022-08-09T01:43:55.778Z,102814.34
2022-08-09T01:46:29.332Z,102816.22
2022-08-09T01:49:10.474Z,102819.84
2022-08-09T01:51:44.647Z,102814.03
2022-08-09T01:54:24.148Z,102828.44
2022-08-09T01:56:52.582Z,102812.94
2022-08-09T01:59:21.356Z,102825.84
2022-08-09T02:01:59.103Z,102821.72
2022-08-09T02:04:29.573Z,102825.34
2022-08-09T02:07:18.120Z,102820.91
2022-08-09T02:10:04.455Z,102805.56
2022-08-09T02:12:33.948Z,102801.16
2022-08-09T02:15:02.774Z,102816.66
2022-08-09T02:18:00.944Z,102820.78
2022-08-09T02:20:26.221Z,102800.66
2022-08-09T02:22:59.526Z,102808.13
2022-08-09T02:25:30.826Z,102806.44
2022-08-09T02:28:04.057Z,102834.06
2022-08-09T02:30:44.627Z,102823.28
2022-08-09T02:33:18.717Z,102825.03
2022-08-09T02:36:03.896Z,102822.38
2022-08-09T02:38:35.759Z,102806.22
2022-08-09T02:41:08.668Z,102828.84
2022-08-09T02:43:42.479Z,102817.59
2022-08-09T02:46:24.674Z,102823.47
2022-08-09T02:48:54.949Z,102821.34
2022-08-09T02:51:26.565Z,102797.63
2022-08-09T02:54:00.786Z,102814.56
2022-08-09T02:56:30.420Z,102821.78
2022-08-09T02:58:57.966Z,102800.59
2022-08-09T03:01:29.302Z,102821.59
2022-08-09T03:04:19.423Z,102833.22
2022-08-09T03:06:48.946Z,102815.31
2022-08-09T03:09:17.396Z,102827.91
2022-08-09T03:12:05.491Z,102825.13
2022-08-09T03:14:31.993Z,102831.72
2022-08-09T03:17:02.866Z,102832.91
2022-08-09T03:19:59.685Z,102823.19
2022-08-09T03:22:25.579Z,102826.88
2022-08-09T03:25:21.515Z,102827.69
2022-08-09T03:27:51.359Z,102825.34
2022-08-09T03:30:29.902Z,102824.88
2022-08-09T03:33:01.924Z,102815.91
2022-08-09T03:36:13.756Z,102831.47
2022-08-09T03:38:28.706Z,102833.81
2022-08-09T03:40:57.921Z,102822.59
2022-08-09T03:43:24.745Z,102812.72
2022-08-09T03:46:03.949Z,102807.06
2022-08-09T03:48:51.510Z,102807.06
2022-08-09T03:51:55.267Z,102821.97
2022-08-09T03:54:10.653Z,102826.34
2022-08-09T03:56:40.963Z,102820.53
2022-08-09T03:59:17.175Z,102818.13
2022-08-09T04:01:50.121Z,102827.63
2022-08-09T04:04:18.193Z,102832.06
2022-08-09T04:06:48.790Z,102817.94
2022-08-09T04:09:47.501Z,102831.50
2022-08-09T04:12:11.880Z,102834.84
2022-08-09T04:15:00.539Z,102833.22
2022-08-09T04:17:29.608Z,102828.44
2022-08-09T04:19:56.594Z,102845.28
2022-08-09T04:22:23.551Z,102829.78
2022-08-09T04:24:50.283Z,102848.78
2022-08-09T04:27:22.165Z,102850.09
2022-08-09T04:29:49.429Z,102856.56
2022-08-09T04:32:23.580Z,102858.97
2022-08-09T04:34:58.284Z,102858.88
2022-08-09T04:37:45.916Z,102860.69
2022-08-09T04:40:19.708Z,102868.88
2022-08-09T04:43:00.889Z,102849.06
2022-08-09T04:45:30.502Z,102863.56
2022-08-09T04:48:03.049Z,102863.69
2022-08-09T04:50:34.890Z,102871.66
2022-08-09T04:53:13.141Z,102871.81
2022-08-09T04:55:57.897Z,102872.00
2022-08-09T04:58:25.710Z,102857.72
2022-08-09T05:00:54.309Z,102855.66
2022-08-09T05:03:40.277Z,102866.00
2022-08-09T05:06:08.874Z,102873.94
2022-08-09T05:08:35.962Z,102879.28
2022-08-09T05:11:03.756Z,102879.94
2022-08-09T05:13:34.071Z,102889.22
2022-08-09T05:16:07.012Z,102892.28
2022-08-09T05:18:50.852Z,102889.09
2022-08-09T05:21:24.714Z,102877.34
2022-08-09T05:24:01.498Z,102873.47
2022-08-09T05:26:36.702Z,102877.16
2022-08-09T05:29:21.143Z,102878.59
2022-08-09T05:31:57.065Z,102873.72
2022-08-09T05:34:30.749Z,102881.03
2022-08-09T05:37:06.089Z,102883.25
2022-08-09T05:39:43.775Z,102869.63
2022-08-09T05:42:20.607Z,102871.88
2022-08-09T05:44:50.938Z,102877.31
2022-08-09T05:47:19.689Z,102874.16
2022-08-09T05:50:23.611Z,102863.00
2022-08-09T05:52:36.307Z,102858.88
2022-08-09T05:55:07.320Z,102843.38
2022-08-09T05:57:50.839Z,102854.75
2022-08-09T06:00:22.765Z,102864.34
2022-08-09T06:02:49.351Z,102853.78
2022-08-09T06:05:21.042Z,102862.53
2022-08-09T06:08:09.163Z,102866.03
2022-08-09T06:10:38.117Z,102866.03
2022-08-09T06:13:12.233Z,102849.38
2022-08-09T06:15:46.768Z,102843.66
2022-08-09T06:18:14.121Z,102828.66
2022-08-09T06:20:42.999Z,102810.03
2022-08-09T06:23:17.207Z,102804.22
2022-08-09T06:25:43.780Z,102799.81
2022-08-09T06:28:10.391Z,102813.78
2022-08-09T06:30:40.655Z,102796.66
2022-08-09T06:33:30.486Z,102801.81
2022-08-09T06:35:58.346Z,102792.31
2022-08-09T06:38:37.240Z,102802.75
2022-08-09T06:41:18.550Z,102805.31
2022-08-09T06:43:47.063Z,102771.84
2022-08-09T06:46:39.885Z,102797.59
2022-08-09T06:49:00.694Z,102795.31
2022-08-09T06:51:28.124Z,102815.13
2022-08-09T06:53:55.538Z,102817.41
2022-08-09T06:56:30.844Z,102819.09
2022-08-09T07:00:50.244Z,102805.72
2022-08-09T07:01:54.486Z,102812.38
2022-08-09T07:04:27.100Z,102808.84
2022-08-09T07:06:59.901Z,102808.84
2022-08-09T07:09:57.141Z,102811.34
2022-08-09T07:12:18.106Z,102800.50
2022-08-09T07:14:51.270Z,102814.34
2022-08-09T07:17:20.168Z,102812.97
2022-08-09T07:19:51.021Z,102798.81
2022-08-09T07:22:34.281Z,102781.56
2022-08-09T07:25:09.989Z,102786.56
2022-08-09T07:27:43.133Z,102790.75
2022-08-09T07:30:21.850Z,102795.22
2022-08-09T07:32:51.922Z,102791.59
2022-08-09T07:35:19.280Z,102796.41
2022-08-09T07:37:47.969Z,102797.97
2022-08-09T07:40:20.251Z,102809.06
2022-08-09T07:42:54.346Z,102814.25
2022-08-09T07:45:39.531Z,102810.28
2022-08-09T07:48:25.934Z,102795.66
2022-08-09T07:51:09.824Z,102780.75
2022-08-09T07:54:06.829Z,102775.53
2022-08-09T07:56:33.916Z,102781.56
2022-08-09T07:59:00.676Z,102789.16
2022-08-09T08:01:33.035Z,102775.41
2022-08-09T08:04:03.861Z,102774.09
2022-08-09T08:06:36.846Z,102754.84
2022-08-09T08:09:18.331Z,102754.75
2022-08-09T08:12:11.233Z,102760.78
2022-08-09T08:14:46.245Z,102755.75
2022-08-09T08:17:14.167Z,102760.13
2022-08-09T08:19:59.517Z,102766.69
2022-08-09T08:22:26.258Z,102777.16
2022-08-09T08:24:58.270Z,102784.41
2022-08-09T08:27:26.506Z,102768.91
2022-08-09T08:30:07.421Z,102773.97
2022-08-09T08:32:52.521Z,102764.13
2022-08-09T08:35:22.574Z,102766.50
2022-08-09T08:38:02.081Z,102765.41
2022-08-09T08:40:36.921Z,102750.75
2022-08-09T08:43:13.354Z,102768.91
2022-08-09T08:45:51.517Z,102772.91
2022-08-09T08:48:22.866Z,102774.03
2022-08-09T08:50:56.519Z,102787.41
2022-08-09T08:53:23.416Z,102768.56
2022-08-09T08:55:59.178Z,102779.69
2022-08-09T08:58:29.616Z,102773.72
2022-08-09T09:00:58.191Z,102766.31
2022-08-09T09:03:37.733Z,102774.91
2022-08-09T09:06:07.178Z,102770.34
2022-08-09T09:08:42.157Z,102769.41
2022-08-09T09:11:13.613Z,102778.09
2022-08-09T09:13:56.594Z,102767.16
2022-08-09T09:16:30.238Z,102771.22
2022-08-09T09:19:21.461Z,102762.22
2022-08-09T09:22:03.939Z,102763.94
2022-08-09T09:24:35.045Z,102758.06
2022-08-09T09:27:06.696Z,102768.75
2022-08-09T09:30:08.612Z,102768.84
2022-08-09T09:32:32.448Z,102760.28
2022-08-09T09:35:09.231Z,102763.69
2022-08-09T09:37:40.263Z,102767.03
2022-08-09T09:40:09.191Z,102769.84
2022-08-09T09:42:36.309Z,102752.06
2022-08-09T09:45:08.384Z,102770.47
2022-08-09T09:47:47.754Z,102757.47
2022-08-09T09:50:17.144Z,102763.53
2022-08-09T09:52:56.090Z,102762.16
2022-08-09T09:55:32.130Z,102772.41
2022-08-09T09:58:18.101Z,102760.31
2022-08-09T10:00:54.597Z,102771.03
2022-08-09T10:03:57.713Z,102761.44
2022-08-09T10:06:42.944Z,102762.91
2022-08-09T10:09:22.574Z,102756.91
2022-08-09T10:12:11.955Z,102760.25
2022-08-09T10:14:47.950Z,102749.69
2022-08-09T10:17:39.498Z,102755.97
2022-08-09T10:20:35.649Z,102758.41
2022-08-09T10:23:21.188Z,102757.91
2022-08-09T10:26:06.096Z,102738.94
2022-08-09T10:28:36.689Z,102755.59
2022-08-09T10:34:09.868Z,102739.94
2022-08-09T10:36:39.816Z,102746.94
2022-08-09T10:39:14.003Z,102741.00
2022-08-09T10:41:42.940Z,102734.88
2022-08-09T10:44:10.566Z,102737.69
2022-08-09T10:47:00.941Z,102733.47
2022-08-09T10:49:42.500Z,102739.47
2022-08-09T10:52:42.794Z,102734.19
2022-08-09T10:55:28.960Z,102730.03
2022-08-09T10:58:37.129Z,102726.09
2022-08-09T11:03:07.401Z,102730.28
2022-08-09T11:04:27.840Z,102726.88
2022-08-09T11:07:00.261Z,102727.56
2022-08-09T11:09:47.438Z,102731.34
2022-08-09T11:12:26.440Z,102729.31
2022-08-09T11:15:04.398Z,102711.97
2022-08-09T11:17:31.829Z,102722.91
2022-08-09T11:20:10.964Z,102720.03
2022-08-09T11:22:55.434Z,102726.81
2022-08-09T11:25:36.183Z,102716.47
2022-08-09T11:28:34.628Z,102724.94
2022-08-09T11:31:49.743Z,102714.84
2022-08-09T11:34:42.851Z,102704.72
2022-08-09T11:37:18.385Z,102699.38
2022-08-09T11:40:07.092Z,102705.06
2022-08-09T11:42:45.065Z,102701.56
2022-08-09T11:45:41.984Z,102705.75
2022-08-09T11:48:19.517Z,102698.59
2022-08-09T11:52:53.871Z,102688.75
2022-08-09T11:54:01.818Z,102688.06
2022-08-09T11:56:41.809Z,102689.66
2022-08-09T11:59:11.700Z,102693.59
2022-08-09T12:02:34.674Z,102692.13
2022-08-09T12:04:32.506Z,102691.25
2022-08-09T12:07:07.804Z,102682.03
2022-08-09T12:09:36.155Z,102678.44
2022-08-09T12:12:12.228Z,102684.78
2022-08-09T12:15:04.054Z,102660.56
2022-08-09T12:17:44.556Z,102676.66
2022-08-09T12:20:16.505Z,102671.56
2022-08-09T12:22:50.370Z,102665.16
2022-08-09T12:25:36.766Z,102662.84
2022-08-09T12:29:09.802Z,102670.28
2022-08-09T12:31:30.855Z,102661.72
2022-08-09T12:34:06.221Z,102658.59
2022-08-09T12:36:33.975Z,102660.47
2022-08-09T12:39:02.667Z,102664.81
2022-08-09T12:41:38.987Z,102645.69
2022-08-09T12:44:09.755Z,102653.44
2022-08-09T12:46:48.823Z,102639.16
2022-08-09T12:49:17.967Z,102654.09
2022-08-09T12:52:02.695Z,102645.53
2022-08-09T12:55:03.159Z,102648.66
2022-08-09T12:57:47.059Z,102641.41
2022-08-09T13:00:25.566Z,102650.25
2022-08-09T13:03:01.007Z,102634.88
2022-08-09T13:05:51.642Z,102635.44
2022-08-09T13:08:40.011Z,102648.31
2022-08-09T13:11:23.198Z,102640.34
2022-08-09T13:14:37.288Z,102626.13
2022-08-09T13:16:50.924Z,102629.78
2022-08-09T13:20:06.878Z,102629.31
2022-08-09T13:22:35.261Z,102622.75
2022-08-09T13:25:07.462Z,102629.97
2022-08-09T13:27:55.333Z,102630.81
2022-08-09T13:31:11.793Z,102624.91
2022-08-09T13:33:52.161Z,102622.06
2022-08-09T13:36:39.947Z,102624.72
2022-08-09T13:41:45.824Z,102623.34
2022-08-09T13:42:00.894Z,102612.75
2022-08-09T13:44:29.352Z,102608.63
2022-08-09T13:47:27.325Z,102610.56
2022-08-09T13:49:57.434Z,102608.22
2022-08-09T13:52:28.338Z,102612.28
2022-08-09T13:54:59.849Z,102605.50
2022-08-09T13:57:36.538Z,102607.50
2022-08-09T14:00:27.258Z,102610.63
2022-08-09T14:03:04.263Z,102604.25
2022-08-09T14:05:59.305Z,102600.97
2022-08-09T14:08:29.766Z,102605.38
2022-08-09T14:10:56.763Z,102603.56
2022-08-09T14:14:15.286Z,102595.44
2022-08-09T14:16:17.323Z,102590.66
2022-08-09T14:18:49.455Z,102597.69
2022-08-09T14:21:23.376Z,102586.47
2022-08-09T14:23:53.641Z,102587.25
2022-08-09T14:26:25.389Z,102590.06
2022-08-09T14:28:57.522Z,102581.56
2022-08-09T14:31:36.382Z,102585.28
2022-08-09T14:34:12.278Z,102587.78
2022-08-09T14:36:39.772Z,102575.63
2022-08-09T14:39:10.365Z,102587.94
2022-08-09T14:41:40.441Z,102574.38
2022-08-09T14:44:09.625Z,102576.78
2022-08-09T14:47:03.035Z,102573.84
2022-08-09T14:49:26.752Z,102581.00
2022-08-09T14:51:58.919Z,102564.69
2022-08-09T14:54:28.172Z,102571.78
2022-08-09T14:56:57.638Z,102568.22
2022-08-09T14:59:25.219Z,102562.53
2022-08-09T15:01:53.829Z,102570.34
2022-08-09T15:04:23.705Z,102568.75
2022-08-09T15:06:51.319Z,102576.31
2022-08-09T15:10:04.151Z,102580.75
2022-08-09T15:12:08.186Z,102563.06
2022-08-09T15:14:38.806Z,102560.63
2022-08-09T15:17:09.894Z,102566.97
2022-08-09T15:19:59.351Z,102567.59
2022-08-09T15:22:25.868Z,102566.41
2022-08-09T15:24:53.654Z,102562.81
2022-08-09T15:27:21.054Z,102559.59
2022-08-09T15:30:57.290Z,102567.41
2022-08-09T15:32:35.335Z,102560.59
2022-08-09T15:35:01.979Z,102558.53
2022-08-09T15:37:57.186Z,102559.25
2022-08-09T15:40:34.015Z,102555.59
2022-08-09T15:43:01.814Z,102541.22
2022-08-09T15:45:29.401Z,102554.81
2022-08-09T15:48:05.577Z,102552.63
2022-08-09T15:50:43.514Z,102544.56
2022-08-09T15:53:17.758Z,102548.63
2022-08-09T15:56:11.119Z,102540.97
2022-08-09T15:58:33.085Z,102540.50
2022-08-09T16:01:01.294Z,102535.44
2022-08-09T16:03:38.166Z,102549.81
2022-08-09T16:06:16.162Z,102539.59
2022-08-09T16:08:56.071Z,102526.72
2022-08-09T16:11:22.715Z,102528.09
2022-08-09T16:14:05.334Z,102538.47
2022-08-09T16:16:39.013Z,102532.09
2022-08-09T16:19:10.291Z,102534.13
2022-08-09T16:21:42.074Z,102536.97
2022-08-09T16:24:29.920Z,102536.59
2022-08-09T16:27:00.720Z,102538.75
2022-08-09T16:29:36.962Z,102534.41
2022-08-09T16:32:18.883Z,102529.84
2022-08-09T16:34:56.439Z,102543.91
2022-08-09T16:37:53.351Z,102534.09
2022-08-09T16:40:14.179Z,102525.88
2022-08-09T16:42:47.975Z,102534.81
2022-08-09T16:45:19.617Z,102526.66
2022-08-09T16:48:39.964Z,102530.91
2022-08-09T16:50:38.677Z,102536.78
2022-08-09T16:53:06.129Z,102524.34
2022-08-09T16:55:58.384Z,102529.50
2022-08-09T16:58:20.920Z,102537.06
2022-08-09T17:00:48.591Z,102531.31
2022-08-09T17:03:21.765Z,102532.25
2022-08-09T17:06:06.614Z,102527.94
2022-08-09T17:08:42.775Z,102536.13
2022-08-09T17:11:13.810Z,102523.34
2022-08-09T17:13:45.133Z,102532.41
2022-08-09T17:16:12.112Z,102531.03
2022-08-09T17:18:39.063Z,102515.81
2022-08-09T17:21:05.702Z,102519.88
2022-08-09T17:24:20.870Z,102526.25
2022-08-09T17:26:31.359Z,102514.84
2022-08-09T17:29:04.727Z,102522.88
2022-08-09T17:31:38.660Z,102518.84
2022-08-09T17:34:20.289Z,102532.00
2022-08-09T17:36:53.988Z,102528.84
2022-08-09T17:39:25.122Z,102526.97
2022-08-09T17:41:51.980Z,102537.56
2022-08-09T17:44:41.676Z,102547.47
2022-08-09T17:47:06.020Z,102539.63
2022-08-09T17:49:37.316Z,102548.88
2022-08-09T17:52:21.994Z,102551.31
2022-08-09T17:54:49.672Z,102551.16
2022-08-09T17:57:20.717Z,102552.41
2022-08-09T18:00:05.419Z,102550.50
2022-08-09T18:02:34.235Z,102538.06
2022-08-09T18:05:00.862Z,102547.13
2022-08-09T18:07:27.487Z,102557.31
2022-08-09T18:10:04.761Z,102563.50
2022-08-09T18:12:40.638Z,102560.31
2022-08-09T18:15:18.915Z,102563.59
2022-08-09T18:18:03.554Z,102572.00
2022-08-09T18:20:57.267Z,102572.50
2022-08-09T18:24:09.763Z,102576.69
2022-08-09T18:26:06.041Z,102583.47
2022-08-09T18:30:38.265Z,102583.25
2022-08-09T18:31:32.395Z,102568.63
2022-08-09T18:34:07.323Z,102555.56
2022-08-09T18:36:36.228Z,102575.44
2022-08-09T18:39:04.893Z,102578.66
2022-08-09T18:41:34.745Z,102579.97
2022-08-09T18:44:03.220Z,102586.63
2022-08-09T18:46:49.767Z,102581.94
2022-08-09T18:49:18.333Z,102591.91
2022-08-09T18:51:55.544Z,102598.28
2022-08-09T18:54:28.453Z,102606.03
2022-08-09T18:56:57.366Z,102598.06
2022-08-09T18:59:43.904Z,102598.19
2022-08-09T19:02:17.776Z,102597.91
2022-08-09T19:04:47.923Z,102601.13
2022-08-09T19:07:31.582Z,102602.88
2022-08-09T19:10:16.740Z,102580.53
2022-08-09T19:12:50.581Z,102604.59
2022-08-09T19:15:22.816Z,102604.16
2022-08-09T19:17:56.094Z,102601.03
2022-08-09T19:20:24.926Z,102607.09
2022-08-09T19:22:54.732Z,102610.28
2022-08-09T19:25:42.647Z,102608.81
2022-08-09T19:28:13.154Z,102614.84
2022-08-09T19:30:44.619Z,102618.47
2022-08-09T19:33:19.327Z,102616.88
2022-08-09T19:35:57.370Z,102612.84
2022-08-09T19:38:26.875Z,102621.31
2022-08-09T19:40:54.185Z,102627.44
2022-08-09T19:43:58.047Z,102631.81
2022-08-09T19:46:13.463Z,102626.63
2022-08-09T19:49:02.247Z,102627.59
2022-08-09T19:51:30.724Z,102636.38
2022-08-09T19:53:59.039Z,102635.63
2022-08-09T19:56:28.758Z,102624.38
2022-08-09T19:59:39.276Z,102641.28
2022-08-09T20:01:52.171Z,102628.09
2022-08-09T20:04:37.606Z,102633.28
2022-08-09T20:07:12.453Z,102653.41
2022-08-09T20:09:47.843Z,102651.38
2022-08-09T20:12:37.562Z,102656.22
2022-08-09T20:15:10.315Z,102656.66
2022-08-09T20:17:54.207Z,102661.06
2022-08-09T20:20:21.369Z,102658.25
2022-08-09T20:22:48.789Z,102661.91
2022-08-09T20:25:22.717Z,102657.47
2022-08-09T20:27:49.844Z,102658.69
2022-08-09T20:30:18.077Z,102648.66
2022-08-09T20:32:52.303Z,102671.13
2022-08-09T20:35:20.394Z,102673.56
2022-08-09T20:38:24.059Z,102684.81
2022-08-09T20:40:35.776Z,102682.78
2022-08-09T20:43:19.059Z,102678.38
2022-08-09T20:45:59.418Z,102680.75
2022-08-09T20:48:30.608Z,102691.22
2022-08-09T20:50:58.468Z,102691.59
2022-08-09T20:53:37.319Z,102696.81
2022-08-09T20:56:21.139Z,102690.41
2022-08-09T20:58:54.637Z,102694.44
2022-08-09T21:01:34.560Z,102684.00
2022-08-09T21:05:54.029Z,102692.81
2022-08-09T21:06:58.723Z,102692.81
2022-08-09T21:09:41.605Z,102691.22
2022-08-09T21:14:41.807Z,102696.41
2022-08-09T21:18:21.577Z,102691.59
2022-08-09T21:20:04.659Z,102682.34
2022-08-09T21:22:47.096Z,102689.19
2022-08-09T21:25:37.700Z,102690.34
2022-08-09T21:28:07.102Z,102688.75
2022-08-09T21:30:34.427Z,102679.88
2022-08-09T21:33:05.835Z,102683.91
2022-08-09T21:35:40.861Z,102676.69
2022-08-09T21:38:18.669Z,102689.09
2022-08-09T21:40:58.124Z,102693.53
2022-08-09T21:43:57.827Z,102688.72
2022-08-09T21:46:12.391Z,102690.31
2022-08-09T21:48:42.641Z,102679.88
2022-08-09T21:51:24.007Z,102698.72
2022-08-09T21:53:54.616Z,102694.69
2022-08-09T21:56:33.971Z,102683.38
2022-08-09T21:59:09.316Z,102702.25
2022-08-09T22:01:59.067Z,102712.66
2022-08-09T22:04:55.053Z,102717.44
2022-08-09T22:07:10.273Z,102720.63
2022-08-09T22:09:41.007Z,102715.38
2022-08-09T22:12:18.142Z,102707.81
2022-08-09T22:14:46.180Z,102695.75
2022-08-09T22:17:13.291Z,102702.13
2022-08-09T22:19:58.877Z,102704.56
2022-08-09T22:22:27.941Z,102710.59
2022-08-09T22:26:06.549Z,102700.94
2022-08-09T22:27:41.079Z,102691.66
2022-08-09T22:30:09.689Z,102698.53
2022-08-09T22:32:37.102Z,102702.09
2022-08-09T22:35:06.691Z,102696.09
2022-08-09T22:38:03.431Z,102699.31
2022-08-09T22:40:35.027Z,102699.31
2022-08-09T22:43:17.101Z,102693.28
2022-08-09T22:48:18.480Z,102693.19
2022-08-09T22:48:36.806Z,102702.47
2022-08-09T22:51:10.740Z,102697.13
2022-08-09T22:53:58.679Z,102700.00
2022-08-09T22:56:31.398Z,102689.53
2022-08-09T22:59:06.133Z,102707.56
2022-08-09T23:01:48.972Z,102693.03
2022-08-09T23:04:16.333Z,102707.13
2022-08-09T23:07:02.542Z,102706.66
2022-08-09T23:09:29.223Z,102693.81
2022-08-09T23:11:55.881Z,102703.03
2022-08-09T23:14:31.473Z,102710.16
2022-08-09T23:17:08.222Z,102707.75
2022-08-09T23:20:07.040Z,102699.34
2022-08-09T23:22:24.059Z,102701.28
2022-08-09T23:24:50.729Z,102694.44
2022-08-09T23:27:17.546Z,102697.22
2022-08-09T23:29:44.412Z,102686.81
2022-08-09T23:32:12.064Z,102701.59
2022-08-09T23:34:38.762Z,102691.16
2022-08-09T23:37:06.077Z,102705.16
2022-08-09T23:39:32.999Z,102700.72
2022-08-09T23:41:59.849Z,102699.06
2022-08-09T23:44:26.579Z,102693.47
2022-08-09T23:46:57.197Z,102702.69
2022-08-09T23:49:25.195Z,102691.00
2022-08-09T23:51:53.079Z,102700.59
2022-08-09T23:54:20.542Z,102706.16
2022-08-09T23:56:53.723Z,102702.16
2022-08-09T23:59:23.408Z,102698.94
